sensor_id;sensor_type;location;lat;lon;timestamp;P1;durP1;ratioP1;P2;durP2;ratioP2
17197;SDS011;8715;51.010;6.812;2023-05-03T00:00:39;873.95;;;817.72;;
17197;SDS011;8715;51.010;6.812;2023-05-03T00:03:05;876.22;;;819.58;;
17197;SDS011;8715;51.010;6.812;2023-05-03T00:05:32;877.33;;;820.85;;
17197;SDS011;8715;51.010;6.812;2023-05-03T00:07:58;876.78;;;819.67;;
17197;SDS011;8715;51.010;6.812;2023-05-03T00:10:26;875.65;;;818.90;;
17197;SDS011;8715;51.010;6.812;2023-05-03T00:12:53;871.20;;;815.00;;
17197;SDS011;8715;51.010;6.812;2023-05-03T00:15:20;874.28;;;818.03;;
17197;SDS011;8715;51.010;6.812;2023-05-03T00:17:46;871.03;;;814.10;;
17197;SDS011;8715;51.010;6.812;2023-05-03T00:20:13;869.65;;;813.92;;
17197;SDS011;8715;51.010;6.812;2023-05-03T00:22:39;874.90;;;818.33;;
17197;SDS011;8715;51.010;6.812;2023-05-03T00:25:06;857.35;;;801.90;;
17197;SDS011;8715;51.010;6.812;2023-05-03T00:27:34;875.25;;;817.88;;
17197;SDS011;8715;51.010;6.812;2023-05-03T00:30:01;878.13;;;820.00;;
17197;SDS011;8715;51.010;6.812;2023-05-03T00:32:27;875.38;;;817.38;;
17197;SDS011;8715;51.010;6.812;2023-05-03T00:34:54;873.45;;;815.95;;
17197;SDS011;8715;51.010;6.812;2023-05-03T00:37:20;872.33;;;815.35;;
17197;SDS011;8715;51.010;6.812;2023-05-03T00:39:46;862.65;;;806.13;;
17197;SDS011;8715;51.010;6.812;2023-05-03T00:42:13;875.00;;;817.97;;
17197;SDS011;8715;51.010;6.812;2023-05-03T00:44:41;865.53;;;809.40;;
17197;SDS011;8715;51.010;6.812;2023-05-03T00:47:07;876.28;;;819.30;;
17197;SDS011;8715;51.010;6.812;2023-05-03T00:49:34;870.83;;;813.55;;
17197;SDS011;8715;51.010;6.812;2023-05-03T00:52:01;872.80;;;816.10;;
17197;SDS011;8715;51.010;6.812;2023-05-03T00:54:27;869.55;;;812.95;;
17197;SDS011;8715;51.010;6.812;2023-05-03T00:56:54;871.15;;;814.60;;
17197;SDS011;8715;51.010;6.812;2023-05-03T00:59:21;869.30;;;813.15;;
17197;SDS011;8715;51.010;6.812;2023-05-03T01:01:49;861.88;;;806.92;;
17197;SDS011;8715;51.010;6.812;2023-05-03T01:04:16;864.28;;;809.25;;
17197;SDS011;8715;51.010;6.812;2023-05-03T01:06:44;866.33;;;810.75;;
17197;SDS011;8715;51.010;6.812;2023-05-03T01:11:41;868.85;;;814.08;;
17197;SDS011;8715;51.010;6.812;2023-05-03T01:14:13;864.88;;;810.05;;
17197;SDS011;8715;51.010;6.812;2023-05-03T01:19:12;855.35;;;801.95;;
17197;SDS011;8715;51.010;6.812;2023-05-03T01:21:39;856.28;;;802.53;;
17197;SDS011;8715;51.010;6.812;2023-05-03T01:24:10;867.30;;;812.35;;
17197;SDS011;8715;51.010;6.812;2023-05-03T01:26:40;861.58;;;807.05;;
17197;SDS011;8715;51.010;6.812;2023-05-03T01:29:06;862.28;;;807.75;;
17197;SDS011;8715;51.010;6.812;2023-05-03T01:31:33;859.63;;;805.53;;
17197;SDS011;8715;51.010;6.812;2023-05-03T01:34:06;855.90;;;802.47;;
17197;SDS011;8715;51.010;6.812;2023-05-03T01:36:36;859.25;;;805.53;;
17197;SDS011;8715;51.010;6.812;2023-05-03T01:39:06;856.60;;;803.38;;
17197;SDS011;8715;51.010;6.812;2023-05-03T01:41:35;856.95;;;803.20;;
17197;SDS011;8715;51.010;6.812;2023-05-03T01:44:04;853.22;;;800.67;;
17197;SDS011;8715;51.010;6.812;2023-05-03T01:46:31;847.53;;;795.55;;
17197;SDS011;8715;51.010;6.812;2023-05-03T01:48:58;847.63;;;795.38;;
17197;SDS011;8715;51.010;6.812;2023-05-03T01:51:24;855.13;;;802.28;;
17197;SDS011;8715;51.010;6.812;2023-05-03T01:53:51;846.78;;;794.47;;
17197;SDS011;8715;51.010;6.812;2023-05-03T01:56:18;857.67;;;804.30;;
17197;SDS011;8715;51.010;6.812;2023-05-03T01:58:45;857.10;;;803.80;;
17197;SDS011;8715;51.010;6.812;2023-05-03T02:01:13;849.90;;;796.63;;
17197;SDS011;8715;51.010;6.812;2023-05-03T02:03:39;837.53;;;785.80;;
17197;SDS011;8715;51.010;6.812;2023-05-03T02:06:06;861.90;;;808.00;;
17197;SDS011;8715;51.010;6.812;2023-05-03T02:08:32;854.88;;;801.00;;
17197;SDS011;8715;51.010;6.812;2023-05-03T02:10:59;853.25;;;799.33;;
17197;SDS011;8715;51.010;6.812;2023-05-03T02:13:25;844.50;;;792.42;;
17197;SDS011;8715;51.010;6.812;2023-05-03T02:15:51;848.67;;;795.75;;
17197;SDS011;8715;51.010;6.812;2023-05-03T02:18:20;854.92;;;802.13;;
17197;SDS011;8715;51.010;6.812;2023-05-03T02:20:47;850.47;;;798.10;;
17197;SDS011;8715;51.010;6.812;2023-05-03T02:23:14;851.03;;;798.17;;
17197;SDS011;8715;51.010;6.812;2023-05-03T02:25:40;848.30;;;796.67;;
17197;SDS011;8715;51.010;6.812;2023-05-03T02:28:06;850.80;;;798.40;;
17197;SDS011;8715;51.010;6.812;2023-05-03T02:30:33;855.83;;;802.88;;
17197;SDS011;8715;51.010;6.812;2023-05-03T02:33:00;854.45;;;801.88;;
17197;SDS011;8715;51.010;6.812;2023-05-03T02:35:28;850.45;;;798.35;;
17197;SDS011;8715;51.010;6.812;2023-05-03T02:37:54;852.35;;;800.28;;
17197;SDS011;8715;51.010;6.812;2023-05-03T02:40:21;851.45;;;799.00;;
17197;SDS011;8715;51.010;6.812;2023-05-03T02:42:47;846.38;;;794.50;;
17197;SDS011;8715;51.010;6.812;2023-05-03T02:45:14;856.28;;;803.10;;
17197;SDS011;8715;51.010;6.812;2023-05-03T02:47:40;853.78;;;801.45;;
17197;SDS011;8715;51.010;6.812;2023-05-03T02:50:07;847.78;;;796.03;;
17197;SDS011;8715;51.010;6.812;2023-05-03T02:52:34;835.80;;;784.22;;
17197;SDS011;8715;51.010;6.812;2023-05-03T02:55:01;835.65;;;784.72;;
17197;SDS011;8715;51.010;6.812;2023-05-03T02:57:27;844.22;;;792.78;;
17197;SDS011;8715;51.010;6.812;2023-05-03T02:59:54;845.95;;;794.58;;
17197;SDS011;8715;51.010;6.812;2023-05-03T03:02:20;842.53;;;791.65;;
17197;SDS011;8715;51.010;6.812;2023-05-03T03:04:47;850.80;;;799.30;;
17197;SDS011;8715;51.010;6.812;2023-05-03T03:07:13;842.88;;;791.72;;
17197;SDS011;8715;51.010;6.812;2023-05-03T03:09:41;848.13;;;797.38;;
17197;SDS011;8715;51.010;6.812;2023-05-03T03:12:07;846.08;;;794.88;;
17197;SDS011;8715;51.010;6.812;2023-05-03T03:14:34;844.17;;;793.30;;
17197;SDS011;8715;51.010;6.812;2023-05-03T03:17:00;844.15;;;793.65;;
17197;SDS011;8715;51.010;6.812;2023-05-03T03:19:27;840.08;;;789.63;;
17197;SDS011;8715;51.010;6.812;2023-05-03T03:21:53;842.53;;;791.65;;
17197;SDS011;8715;51.010;6.812;2023-05-03T03:24:20;839.58;;;789.72;;
17197;SDS011;8715;51.010;6.812;2023-05-03T03:26:48;847.97;;;796.50;;
17197;SDS011;8715;51.010;6.812;2023-05-03T03:29:18;840.47;;;789.53;;
17197;SDS011;8715;51.010;6.812;2023-05-03T03:31:44;840.40;;;789.80;;
17197;SDS011;8715;51.010;6.812;2023-05-03T03:34:11;848.08;;;797.60;;
17197;SDS011;8715;51.010;6.812;2023-05-03T03:36:37;840.75;;;790.28;;
17197;SDS011;8715;51.010;6.812;2023-05-03T03:39:04;841.30;;;790.60;;
17197;SDS011;8715;51.010;6.812;2023-05-03T03:41:31;843.45;;;793.08;;
17197;SDS011;8715;51.010;6.812;2023-05-03T03:43:59;848.78;;;797.53;;
17197;SDS011;8715;51.010;6.812;2023-05-03T03:46:25;835.08;;;785.63;;
17197;SDS011;8715;51.010;6.812;2023-05-03T03:48:51;845.45;;;794.97;;
17197;SDS011;8715;51.010;6.812;2023-05-03T03:51:18;841.20;;;790.72;;
17197;SDS011;8715;51.010;6.812;2023-05-03T03:53:44;847.15;;;796.60;;
17197;SDS011;8715;51.010;6.812;2023-05-03T03:56:11;841.22;;;790.80;;
17197;SDS011;8715;51.010;6.812;2023-05-03T03:58:37;831.92;;;782.83;;
17197;SDS011;8715;51.010;6.812;2023-05-03T04:01:05;821.53;;;773.92;;
17197;SDS011;8715;51.010;6.812;2023-05-03T04:03:32;845.97;;;795.50;;
17197;SDS011;8715;51.010;6.812;2023-05-03T04:05:58;845.42;;;795.20;;
17197;SDS011;8715;51.010;6.812;2023-05-03T04:08:25;835.53;;;786.40;;
17197;SDS011;8715;51.010;6.812;2023-05-03T04:10:51;836.00;;;785.97;;
17197;SDS011;8715;51.010;6.812;2023-05-03T04:13:17;839.40;;;790.03;;
17197;SDS011;8715;51.010;6.812;2023-05-03T04:15:44;835.20;;;785.75;;
17197;SDS011;8715;51.010;6.812;2023-05-03T04:18:12;843.97;;;793.72;;
17197;SDS011;8715;51.010;6.812;2023-05-03T04:20:38;846.28;;;794.88;;
17197;SDS011;8715;51.010;6.812;2023-05-03T04:23:04;854.75;;;802.50;;
17197;SDS011;8715;51.010;6.812;2023-05-03T04:25:31;854.10;;;800.08;;
17197;SDS011;8715;51.010;6.812;2023-05-03T04:27:57;872.08;;;816.10;;
17197;SDS011;8715;51.010;6.812;2023-05-03T04:30:24;859.45;;;803.63;;
17197;SDS011;8715;51.010;6.812;2023-05-03T04:32:50;871.97;;;813.88;;
17197;SDS011;8715;51.010;6.812;2023-05-03T04:35:19;891.20;;;831.17;;
17197;SDS011;8715;51.010;6.812;2023-05-03T04:37:46;888.15;;;828.25;;
17197;SDS011;8715;51.010;6.812;2023-05-03T04:40:12;897.10;;;835.25;;
17197;SDS011;8715;51.010;6.812;2023-05-03T04:42:40;896.40;;;834.45;;
17197;SDS011;8715;51.010;6.812;2023-05-03T04:45:07;900.67;;;838.55;;
17197;SDS011;8715;51.010;6.812;2023-05-03T04:47:34;902.72;;;839.30;;
17197;SDS011;8715;51.010;6.812;2023-05-03T04:50:01;902.75;;;838.08;;
17197;SDS011;8715;51.010;6.812;2023-05-03T04:52:29;910.67;;;845.25;;
17197;SDS011;8715;51.010;6.812;2023-05-03T04:54:55;912.63;;;846.45;;
17197;SDS011;8715;51.010;6.812;2023-05-03T04:57:22;915.60;;;849.30;;
17197;SDS011;8715;51.010;6.812;2023-05-03T04:59:48;920.88;;;852.10;;
17197;SDS011;8715;51.010;6.812;2023-05-03T05:02:15;925.58;;;855.08;;
17197;SDS011;8715;51.010;6.812;2023-05-03T05:04:41;939.25;;;866.80;;
17197;SDS011;8715;51.010;6.812;2023-05-03T05:07:09;939.50;;;863.45;;
17197;SDS011;8715;51.010;6.812;2023-05-03T05:09:38;950.28;;;873.60;;
17197;SDS011;8715;51.010;6.812;2023-05-03T05:12:05;960.85;;;880.33;;
17197;SDS011;8715;51.010;6.812;2023-05-03T05:14:31;966.50;;;883.67;;
17197;SDS011;8715;51.010;6.812;2023-05-03T05:16:58;975.80;;;890.47;;
17197;SDS011;8715;51.010;6.812;2023-05-03T05:19:24;975.17;;;889.03;;
17197;SDS011;8715;51.010;6.812;2023-05-03T05:21:50;980.90;;;893.28;;
17197;SDS011;8715;51.010;6.812;2023-05-03T05:24:17;985.08;;;895.22;;
17197;SDS011;8715;51.010;6.812;2023-05-03T05:26:45;988.97;;;898.88;;
17197;SDS011;8715;51.010;6.812;2023-05-03T05:29:11;986.75;;;895.45;;
17197;SDS011;8715;51.010;6.812;2023-05-03T05:31:38;987.72;;;896.03;;
17197;SDS011;8715;51.010;6.812;2023-05-03T05:34:04;985.45;;;895.45;;
17197;SDS011;8715;51.010;6.812;2023-05-03T05:36:31;985.13;;;895.20;;
17197;SDS011;8715;51.010;6.812;2023-05-03T05:38:57;985.45;;;896.08;;
17197;SDS011;8715;51.010;6.812;2023-05-03T05:41:24;979.55;;;891.33;;
17197;SDS011;8715;51.010;6.812;2023-05-03T05:43:52;979.67;;;891.78;;
17197;SDS011;8715;51.010;6.812;2023-05-03T05:46:18;979.00;;;891.15;;
17197;SDS011;8715;51.010;6.812;2023-05-03T05:48:45;982.75;;;893.03;;
17197;SDS011;8715;51.010;6.812;2023-05-03T05:51:12;991.70;;;899.15;;
17197;SDS011;8715;51.010;6.812;2023-05-03T05:53:38;999.10;;;903.22;;
17197;SDS011;8715;51.010;6.812;2023-05-03T05:56:05;1004.70;;;906.05;;
17197;SDS011;8715;51.010;6.812;2023-05-03T05:58:32;1011.10;;;910.63;;
17197;SDS011;8715;51.010;6.812;2023-05-03T06:01:00;1016.53;;;913.97;;
17197;SDS011;8715;51.010;6.812;2023-05-03T06:03:27;1020.63;;;916.13;;
17197;SDS011;8715;51.010;6.812;2023-05-03T06:05:55;1024.03;;;918.20;;
17197;SDS011;8715;51.010;6.812;2023-05-03T06:08:22;1024.80;;;917.85;;
17197;SDS011;8715;51.010;6.812;2023-05-03T06:10:48;1030.50;;;921.45;;
17197;SDS011;8715;51.010;6.812;2023-05-03T06:13:16;1032.03;;;921.28;;
17197;SDS011;8715;51.010;6.812;2023-05-03T06:15:43;1032.53;;;921.95;;
17197;SDS011;8715;51.010;6.812;2023-05-03T06:18:11;1036.25;;;924.45;;
17197;SDS011;8715;51.010;6.812;2023-05-03T06:20:37;1044.03;;;930.35;;
17197;SDS011;8715;51.010;6.812;2023-05-03T06:23:04;1040.32;;;926.63;;
17197;SDS011;8715;51.010;6.812;2023-05-03T06:25:30;1039.35;;;926.50;;
17197;SDS011;8715;51.010;6.812;2023-05-03T06:27:57;1035.35;;;925.25;;
17197;SDS011;8715;51.010;6.812;2023-05-03T06:30:23;1030.03;;;922.03;;
17197;SDS011;8715;51.010;6.812;2023-05-03T06:32:52;1020.35;;;916.35;;
17197;SDS011;8715;51.010;6.812;2023-05-03T06:35:20;1011.92;;;910.65;;
17197;SDS011;8715;51.010;6.812;2023-05-03T06:37:46;1009.88;;;910.70;;
17197;SDS011;8715;51.010;6.812;2023-05-03T06:40:13;1000.53;;;904.65;;
17197;SDS011;8715;51.010;6.812;2023-05-03T06:42:40;999.70;;;904.53;;
17197;SDS011;8715;51.010;6.812;2023-05-03T06:45:07;993.00;;;900.47;;
17197;SDS011;8715;51.010;6.812;2023-05-03T06:47:33;984.45;;;894.58;;
17197;SDS011;8715;51.010;6.812;2023-05-03T06:50:01;979.42;;;891.17;;
17197;SDS011;8715;51.010;6.812;2023-05-03T06:52:28;975.33;;;888.60;;
17197;SDS011;8715;51.010;6.812;2023-05-03T06:54:55;972.20;;;886.28;;
17197;SDS011;8715;51.010;6.812;2023-05-03T06:57:21;973.05;;;886.42;;
17197;SDS011;8715;51.010;6.812;2023-05-03T06:59:48;968.75;;;884.63;;
17197;SDS011;8715;51.010;6.812;2023-05-03T07:02:14;969.33;;;885.13;;
17197;SDS011;8715;51.010;6.812;2023-05-03T07:04:40;969.17;;;885.03;;
17197;SDS011;8715;51.010;6.812;2023-05-03T07:07:07;964.42;;;882.08;;
17197;SDS011;8715;51.010;6.812;2023-05-03T07:09:35;963.70;;;880.80;;
17197;SDS011;8715;51.010;6.812;2023-05-03T07:12:01;959.30;;;878.25;;
17197;SDS011;8715;51.010;6.812;2023-05-03T07:14:28;956.35;;;876.28;;
17197;SDS011;8715;51.010;6.812;2023-05-03T07:16:55;952.10;;;873.38;;
17197;SDS011;8715;51.010;6.812;2023-05-03T07:19:21;956.03;;;876.72;;
17197;SDS011;8715;51.010;6.812;2023-05-03T07:21:48;946.33;;;869.10;;
17197;SDS011;8715;51.010;6.812;2023-05-03T07:24:15;953.53;;;875.75;;
17197;SDS011;8715;51.010;6.812;2023-05-03T07:26:43;949.50;;;872.45;;
17197;SDS011;8715;51.010;6.812;2023-05-03T07:29:09;948.78;;;871.83;;
17197;SDS011;8715;51.010;6.812;2023-05-03T07:31:36;948.10;;;871.47;;
17197;SDS011;8715;51.010;6.812;2023-05-03T07:34:02;948.72;;;871.60;;
17197;SDS011;8715;51.010;6.812;2023-05-03T07:36:29;948.22;;;871.45;;
17197;SDS011;8715;51.010;6.812;2023-05-03T07:38:56;948.20;;;872.03;;
17197;SDS011;8715;51.010;6.812;2023-05-03T07:41:22;943.88;;;867.72;;
17197;SDS011;8715;51.010;6.812;2023-05-03T07:43:50;942.50;;;867.03;;
17197;SDS011;8715;51.010;6.812;2023-05-03T07:46:16;943.63;;;867.55;;
17197;SDS011;8715;51.010;6.812;2023-05-03T07:48:42;947.30;;;871.03;;
17197;SDS011;8715;51.010;6.812;2023-05-03T07:51:09;945.65;;;869.50;;
17197;SDS011;8715;51.010;6.812;2023-05-03T07:53:35;947.78;;;871.17;;
17197;SDS011;8715;51.010;6.812;2023-05-03T07:56:04;945.65;;;869.08;;
17197;SDS011;8715;51.010;6.812;2023-05-03T07:58:31;952.25;;;874.53;;
17197;SDS011;8715;51.010;6.812;2023-05-03T08:00:58;955.00;;;876.75;;
17197;SDS011;8715;51.010;6.812;2023-05-03T08:03:25;956.67;;;877.50;;
17197;SDS011;8715;51.010;6.812;2023-05-03T08:05:51;954.22;;;875.47;;
17197;SDS011;8715;51.010;6.812;2023-05-03T08:08:18;954.10;;;875.22;;
17197;SDS011;8715;51.010;6.812;2023-05-03T08:10:44;954.08;;;875.53;;
17197;SDS011;8715;51.010;6.812;2023-05-03T08:13:10;956.58;;;877.80;;
17197;SDS011;8715;51.010;6.812;2023-05-03T08:15:37;954.50;;;875.38;;
17197;SDS011;8715;51.010;6.812;2023-05-03T08:18:05;955.28;;;876.40;;
17197;SDS011;8715;51.010;6.812;2023-05-03T08:20:32;956.88;;;877.42;;
17197;SDS011;8715;51.010;6.812;2023-05-03T08:23:00;959.25;;;879.42;;
17197;SDS011;8715;51.010;6.812;2023-05-03T08:25:27;957.42;;;877.33;;
17197;SDS011;8715;51.010;6.812;2023-05-03T08:27:54;960.42;;;879.58;;
17197;SDS011;8715;51.010;6.812;2023-05-03T08:30:20;955.88;;;876.05;;
17197;SDS011;8715;51.010;6.812;2023-05-03T08:32:47;959.10;;;878.78;;
17197;SDS011;8715;51.010;6.812;2023-05-03T08:35:15;957.53;;;877.33;;
17197;SDS011;8715;51.010;6.812;2023-05-03T08:37:41;958.42;;;878.17;;
17197;SDS011;8715;51.010;6.812;2023-05-03T08:40:08;957.13;;;877.75;;
17197;SDS011;8715;51.010;6.812;2023-05-03T08:42:37;955.92;;;876.17;;
17197;SDS011;8715;51.010;6.812;2023-05-03T08:45:04;956.08;;;876.70;;
17197;SDS011;8715;51.010;6.812;2023-05-03T08:47:32;958.05;;;878.42;;
17197;SDS011;8715;51.010;6.812;2023-05-03T08:50:02;956.53;;;877.35;;
17197;SDS011;8715;51.010;6.812;2023-05-03T08:52:30;956.42;;;877.25;;
17197;SDS011;8715;51.010;6.812;2023-05-03T08:54:59;956.58;;;877.03;;
17197;SDS011;8715;51.010;6.812;2023-05-03T08:57:25;957.50;;;877.58;;
17197;SDS011;8715;51.010;6.812;2023-05-03T08:59:52;961.10;;;880.45;;
17197;SDS011;8715;51.010;6.812;2023-05-03T09:02:22;956.92;;;876.83;;
17197;SDS011;8715;51.010;6.812;2023-05-03T09:04:49;960.10;;;879.03;;
17197;SDS011;8715;51.010;6.812;2023-05-03T09:07:15;958.13;;;877.40;;
17197;SDS011;8715;51.010;6.812;2023-05-03T14:22:14;996.80;;;901.55;;
17197;SDS011;8715;51.010;6.812;2023-05-03T14:24:40;996.00;;;901.22;;
17197;SDS011;8715;51.010;6.812;2023-05-03T14:27:08;998.17;;;902.63;;
17197;SDS011;8715;51.010;6.812;2023-05-03T14:29:34;1000.65;;;905.03;;
17197;SDS011;8715;51.010;6.812;2023-05-03T14:32:01;999.40;;;903.05;;
17197;SDS011;8715;51.010;6.812;2023-05-03T14:34:27;998.67;;;902.97;;
17197;SDS011;8715;51.010;6.812;2023-05-03T14:36:54;1000.28;;;904.45;;
17197;SDS011;8715;51.010;6.812;2023-05-03T14:39:21;999.08;;;903.55;;
17197;SDS011;8715;51.010;6.812;2023-05-03T14:41:48;999.20;;;903.15;;
17197;SDS011;8715;51.010;6.812;2023-05-03T14:44:15;1000.75;;;903.78;;
17197;SDS011;8715;51.010;6.812;2023-05-03T14:46:41;998.85;;;902.38;;
17197;SDS011;8715;51.010;6.812;2023-05-03T14:49:08;1003.83;;;906.35;;
17197;SDS011;8715;51.010;6.812;2023-05-03T14:51:34;1004.13;;;906.63;;
17197;SDS011;8715;51.010;6.812;2023-05-03T14:54:00;1002.85;;;905.53;;
17197;SDS011;8715;51.010;6.812;2023-05-03T14:56:28;1003.22;;;905.42;;
17197;SDS011;8715;51.010;6.812;2023-05-03T14:58:56;1004.70;;;907.35;;
17197;SDS011;8715;51.010;6.812;2023-05-03T15:01:23;1002.90;;;905.50;;
17197;SDS011;8715;51.010;6.812;2023-05-03T15:03:49;1005.55;;;907.65;;
17197;SDS011;8715;51.010;6.812;2023-05-03T15:06:21;1001.30;;;904.50;;
17197;SDS011;8715;51.010;6.812;2023-05-03T15:08:49;1004.25;;;906.53;;
17197;SDS011;8715;51.010;6.812;2023-05-03T15:13:52;1005.97;;;908.05;;
17197;SDS011;8715;51.010;6.812;2023-05-03T15:16:19;1001.70;;;905.00;;
17197;SDS011;8715;51.010;6.812;2023-05-03T15:21:50;997.50;;;901.80;;
17197;SDS011;8715;51.010;6.812;2023-05-03T15:24:17;1000.90;;;904.50;;
17197;SDS011;8715;51.010;6.812;2023-05-03T15:26:43;996.78;;;899.45;;
17197;SDS011;8715;51.010;6.812;2023-05-03T15:29:12;998.90;;;902.92;;
17197;SDS011;8715;51.010;6.812;2023-05-03T15:31:38;1002.00;;;905.55;;
17197;SDS011;8715;51.010;6.812;2023-05-03T15:34:06;1001.15;;;904.63;;
17197;SDS011;8715;51.010;6.812;2023-05-03T15:36:35;993.85;;;896.85;;
17197;SDS011;8715;51.010;6.812;2023-05-03T15:39:01;1001.47;;;904.95;;
17197;SDS011;8715;51.010;6.812;2023-05-03T15:41:28;1000.10;;;904.00;;
17197;SDS011;8715;51.010;6.812;2023-05-03T15:43:54;999.13;;;903.05;;
17197;SDS011;8715;51.010;6.812;2023-05-03T15:46:22;998.42;;;902.15;;
17197;SDS011;8715;51.010;6.812;2023-05-03T15:48:49;1002.67;;;905.60;;
17197;SDS011;8715;51.010;6.812;2023-05-03T15:51:16;1002.28;;;905.10;;
17197;SDS011;8715;51.010;6.812;2023-05-03T15:53:43;1001.45;;;903.63;;
17197;SDS011;8715;51.010;6.812;2023-05-03T15:56:09;1002.22;;;905.03;;
17197;SDS011;8715;51.010;6.812;2023-05-03T15:58:36;1000.60;;;903.47;;
17197;SDS011;8715;51.010;6.812;2023-05-03T16:01:02;1000.78;;;903.85;;
17197;SDS011;8715;51.010;6.812;2023-05-03T16:03:30;999.83;;;903.67;;
17197;SDS011;8715;51.010;6.812;2023-05-03T16:05:56;998.55;;;902.92;;
17197;SDS011;8715;51.010;6.812;2023-05-03T16:08:23;1000.38;;;904.72;;
17197;SDS011;8715;51.010;6.812;2023-05-03T16:10:50;994.97;;;900.22;;
17197;SDS011;8715;51.010;6.812;2023-05-03T16:13:16;998.67;;;903.53;;
17197;SDS011;8715;51.010;6.812;2023-05-03T16:15:43;995.95;;;901.53;;
17197;SDS011;8715;51.010;6.812;2023-05-03T16:18:09;994.10;;;899.78;;
17197;SDS011;8715;51.010;6.812;2023-05-03T16:20:37;993.65;;;899.13;;
17197;SDS011;8715;51.010;6.812;2023-05-03T16:23:03;997.83;;;903.20;;
17197;SDS011;8715;51.010;6.812;2023-05-03T16:25:30;995.33;;;900.75;;
17197;SDS011;8715;51.010;6.812;2023-05-03T16:27:56;994.78;;;900.58;;
17197;SDS011;8715;51.010;6.812;2023-05-03T16:30:23;996.75;;;902.03;;
17197;SDS011;8715;51.010;6.812;2023-05-03T16:32:50;993.17;;;899.25;;
17197;SDS011;8715;51.010;6.812;2023-05-03T16:35:16;992.53;;;898.67;;
17197;SDS011;8715;51.010;6.812;2023-05-03T16:40:49;990.60;;;897.08;;
17197;SDS011;8715;51.010;6.812;2023-05-03T16:43:16;992.13;;;898.97;;
17197;SDS011;8715;51.010;6.812;2023-05-03T16:45:42;989.83;;;896.70;;
17197;SDS011;8715;51.010;6.812;2023-05-03T16:48:09;995.85;;;901.88;;
17197;SDS011;8715;51.010;6.812;2023-05-03T16:50:36;991.55;;;897.65;;
17197;SDS011;8715;51.010;6.812;2023-05-03T16:53:03;991.92;;;898.90;;
17197;SDS011;8715;51.010;6.812;2023-05-03T16:55:29;991.33;;;898.22;;
17197;SDS011;8715;51.010;6.812;2023-05-03T16:57:57;990.35;;;896.92;;
17197;SDS011;8715;51.010;6.812;2023-05-03T17:00:24;987.75;;;895.22;;
17197;SDS011;8715;51.010;6.812;2023-05-03T17:02:50;988.97;;;896.28;;
17197;SDS011;8715;51.010;6.812;2023-05-03T17:05:16;988.63;;;895.75;;
17197;SDS011;8715;51.010;6.812;2023-05-03T17:07:44;993.25;;;900.65;;
17197;SDS011;8715;51.010;6.812;2023-05-03T17:10:10;992.70;;;900.33;;
17197;SDS011;8715;51.010;6.812;2023-05-03T17:12:37;985.92;;;894.17;;
